Weather reports worldwide

Advertisment
Valladolid/Villanubla, Spain (8140): temperature & dewpoint: 19.08.2019 08:00:00 - 25.08.2019 08:00:00 (CEST)Valladolid/Villanubla, Spain (8140): wind speed: 19.08.2019 08:00:00 - 25.08.2019 08:00:00 (CEST)Valladolid/Villanubla, Spain (8140): wind direction: 19.08.2019 08:00:00 - 25.08.2019 08:00:00 (CEST)Valladolid/Villanubla, Spain (8140): visibility: 19.08.2019 08:00:00 - 25.08.2019 08:00:00 (CEST)
Date & Time tt [°C] td [°C] ff [km/h] ff [kn] dd vv [km]
25.08.2019 08:00:00 - - - - - -
25.08.2019 07:00:00 16,0 6,0 8 4 E 10
25.08.2019 06:00:00 - - - - - -
25.08.2019 05:00:00 - - - - - -
25.08.2019 04:00:00 - - - - - -
25.08.2019 03:00:00 - - - - - -
25.08.2019 02:00:00 - - - - - -
25.08.2019 01:00:00 - - - - - -
25.08.2019 00:00:00 - - - - - -
24.08.2019 23:00:00 - - - - - -
24.08.2019 22:00:00 - - - - - -
24.08.2019 21:00:00 28,0 4,0 5 3 WSW 10
24.08.2019 20:00:00 30,7 4,4 11 6 SSW 25
24.08.2019 19:00:00 32,0 5,0 13 7 W 10
24.08.2019 18:00:00 33,0 3,0 4 2 E 10
24.08.2019 17:00:00 32,7 4,5 11 6 WNW 25
24.08.2019 16:00:00 31,0 3,0 4 2 N 10
24.08.2019 15:00:00 32,0 4,0 11 6 WSW 10
24.08.2019 14:00:00 30,9 4,6 9 5 SSE 25
24.08.2019 13:00:00 29,0 4,0 5 3 WSW 10
24.08.2019 12:00:00 27,0 5,0 5 3 - 10
24.08.2019 11:00:00 23,7 5,6 4 2 SE 25
24.08.2019 10:00:00 21,0 4,0 5 3 SE 10
24.08.2019 09:00:00 17,0 6,0 5 3 E 10
24.08.2019 08:00:00 13,8 5,2 11 6 E 25
24.08.2019 07:00:00 14,0 5,0 11 6 E 10
24.08.2019 06:00:00 - - - - - -
24.08.2019 05:00:00 - - - - - -
24.08.2019 04:00:00 - - - - - -
24.08.2019 03:00:00 - - - - - -
24.08.2019 02:00:00 - - - - - -
24.08.2019 01:00:00 - - - - - -
24.08.2019 00:00:00 - - - - - -
23.08.2019 23:00:00 - - - - - -
23.08.2019 22:00:00 - - - - - -
23.08.2019 21:00:00 27,0 2,0 9 5 NNW 10
23.08.2019 20:00:00 29,9 2,2 13 7 NW 25
23.08.2019 19:00:00 31,0 2,0 9 5 NW 10
23.08.2019 18:00:00 32,0 1,0 11 6 WNW 10
23.08.2019 17:00:00 31,4 0,7 18 10 WNW 25
23.08.2019 16:00:00 31,0 1,0 22 12 NW 10
23.08.2019 15:00:00 31,0 1,0 13 7 WSW 10
23.08.2019 14:00:00 29,2 1,7 13 7 W 10
23.08.2019 13:00:00 28,0 6,0 8 4 S 10
23.08.2019 12:00:00 25,0 8,0 9 5 SSW 10
23.08.2019 11:00:00 23,8 7,4 13 7 S 25
23.08.2019 10:00:00 20,0 6,0 5 3 E 10
23.08.2019 09:00:00 16,0 6,0 4 2 - 10
23.08.2019 08:00:00 10,3 4,0 8 4 ENE 25
23.08.2019 07:00:00 10,0 4,0 11 6 N 10
23.08.2019 06:00:00 - - - - - -
23.08.2019 05:00:00 - - - - - -
23.08.2019 04:00:00 - - - - - -
23.08.2019 03:00:00 - - - - - -
23.08.2019 02:00:00 - - - - - -
23.08.2019 01:00:00 - - - - - -
23.08.2019 00:00:00 - - - - - -
22.08.2019 23:00:00 - - - - - -
22.08.2019 22:00:00 - - - - - -
22.08.2019 21:00:00 23,0 -5,0 9 5 NE 10
22.08.2019 20:00:00 28,0 -9,3 4 2 ENE 10
22.08.2019 19:00:00 29,0 -10,0 9 5 NE 10
22.08.2019 18:00:00 29,0 -9,0 11 6 E 10
22.08.2019 17:00:00 28,4 -7,5 16 9 E 10
22.08.2019 16:00:00 28,0 -1,0 13 7 NE 10
22.08.2019 15:00:00 29,0 1,0 13 7 ENE 10
22.08.2019 14:00:00 26,7 -0,3 16 9 ENE 10
22.08.2019 13:00:00 25,0 -2,0 18 10 ENE 10
22.08.2019 12:00:00 22,0 3,0 16 9 ENE 10
22.08.2019 11:00:00 20,0 6,0 18 10 ENE 25
22.08.2019 10:00:00 17,0 8,0 21 11 ENE 10
22.08.2019 09:00:00 14,0 8,0 13 7 NE 10
22.08.2019 08:00:00 11,7 8,2 9 5 NE 10
22.08.2019 07:00:00 12,0 9,0 15 8 NE 10
22.08.2019 06:00:00 - - - - - -
22.08.2019 05:00:00 - - - - - -
22.08.2019 04:00:00 - - - - - -
22.08.2019 03:00:00 - - - - - -
22.08.2019 02:00:00 - - - - - -
22.08.2019 01:00:00 - - - - - -
22.08.2019 00:00:00 - - - - - -
21.08.2019 23:00:00 - - - - - -
21.08.2019 22:00:00 - - - - - -
21.08.2019 21:00:00 25,0 8,0 11 6 NE 10
21.08.2019 20:00:00 27,3 8,7 11 6 N 25
21.08.2019 19:00:00 28,0 8,0 13 7 NNW 10
21.08.2019 18:00:00 28,0 9,0 11 6 N 10
21.08.2019 17:00:00 26,5 11,0 8 4 NE 10
21.08.2019 16:00:00 27,0 12,0 5 3 S 10
21.08.2019 15:00:00 26,0 12,0 5 3 E 10
21.08.2019 14:00:00 23,7 12,0 8 4 ENE 10
21.08.2019 13:00:00 22,0 12,0 9 5 NE 10
21.08.2019 12:00:00 19,0 11,0 13 7 ENE 10
21.08.2019 11:00:00 16,7 10,5 16 9 ENE 10
21.08.2019 10:00:00 16,0 11,0 16 9 ENE 10
21.08.2019 09:00:00 14,0 10,0 13 7 NE 10
21.08.2019 08:00:00 12,4 10,0 9 5 NE 25
21.08.2019 07:00:00 13,0 10,0 13 7 NE 10
21.08.2019 06:00:00 - - - - - -
21.08.2019 05:00:00 - - - - - -
21.08.2019 04:00:00 - - - - - -
21.08.2019 03:00:00 - - - - - -
21.08.2019 02:00:00 - - - - - -
21.08.2019 01:00:00 - - - - - -
21.08.2019 00:00:00 - - - - - -
20.08.2019 23:00:00 - - - - - -
20.08.2019 22:00:00 - - - - - -
20.08.2019 21:00:00 20,0 8,0 26 14 NE 10
20.08.2019 20:00:00 22,0 7,8 28 15 NE 10
20.08.2019 19:00:00 23,0 7,0 18 10 ENE 10
20.08.2019 18:00:00 24,0 7,0 18 10 NE 10
20.08.2019 17:00:00 23,3 7,4 21 11 ENE 25
20.08.2019 16:00:00 23,0 9,0 22 12 E 10
20.08.2019 15:00:00 22,0 9,0 22 12 ENE 10
20.08.2019 14:00:00 21,5 9,4 26 14 ENE 10
20.08.2019 13:00:00 21,0 9,0 29 16 ENE 10
20.08.2019 12:00:00 19,0 9,0 34 18 ENE 10
20.08.2019 11:00:00 18,0 9,6 34 18 ENE 25
20.08.2019 10:00:00 16,0 10,0 31 17 ENE 10
20.08.2019 09:00:00 14,0 10,0 34 18 ENE 10
20.08.2019 08:00:00 13,4 10,0 28 15 ENE 10
20.08.2019 07:00:00 13,0 10,0 24 13 ENE 10
20.08.2019 06:00:00 - - - - - -
20.08.2019 05:00:00 - - - - - -
20.08.2019 04:00:00 - - - - - -
20.08.2019 03:00:00 - - - - - -
20.08.2019 02:00:00 - - - - - -
20.08.2019 01:00:00 - - - - - -
20.08.2019 00:00:00 - - - - - -
19.08.2019 23:00:00 - - - - - -
19.08.2019 22:00:00 - - - - - -
19.08.2019 21:00:00 19,0 10,0 24 13 NE 10
19.08.2019 20:00:00 20,1 10,5 22 12 ENE 10
19.08.2019 19:00:00 20,0 11,0 24 13 NE 10
19.08.2019 18:00:00 21,0 11,0 24 13 ENE 10
19.08.2019 17:00:00 22,6 11,0 22 12 ENE 10
19.08.2019 16:00:00 23,0 11,0 18 10 E 10
19.08.2019 15:00:00 23,0 11,0 15 8 NE 10
19.08.2019 14:00:00 21,9 11,0 16 9 NE 25
19.08.2019 13:00:00 21,0 11,0 15 8 ENE 10
19.08.2019 12:00:00 20,0 11,0 16 9 ENE 10
19.08.2019 11:00:00 17,0 10,8 18 10 E 10
19.08.2019 10:00:00 16,0 11,0 18 10 NE 10
19.08.2019 09:00:00 15,0 11,0 16 9 ENE 10
19.08.2019 08:00:00 14,1 10,9 16 9 ENE 10

tt = temperature
td = dewpoint
ff = wind speed
dd = wind direction
vv = visibility

Next stations